sensor_id;sensor_type;location;lat;lon;timestamp;pressure;altitude;pressure_sealevel;temperature;humidity
62508;BME280;48556;51.972;4.624;2023-05-23T00:01:30;76866.38;;;-146.23;61.94
62508;BME280;48556;51.972;4.624;2023-05-23T00:04:05;76902.53;;;-146.23;62.26
62508;BME280;48556;51.972;4.624;2023-05-23T00:06:31;76914.56;;;-146.23;62.69
62508;BME280;48556;51.972;4.624;2023-05-23T00:08:58;76888.47;;;-146.23;62.49
62508;BME280;48556;51.972;4.624;2023-05-23T00:11:25;76918.59;;;-146.23;63.05
62508;BME280;48556;51.972;4.624;2023-05-23T00:13:57;76934.66;;;-146.23;63.10
62508;BME280;48556;51.972;4.624;2023-05-23T00:16:25;76936.66;;;-146.23;63.41
62508;BME280;48556;51.972;4.624;2023-05-23T00:18:51;76930.63;;;-146.23;63.23
62508;BME280;48556;51.972;4.624;2023-05-23T00:21:18;76898.50;;;-146.23;62.68
62508;BME280;48556;51.972;4.624;2023-05-23T00:23:44;76934.66;;;-146.23;62.87
62508;BME280;48556;51.972;4.624;2023-05-23T00:26:10;76946.72;;;-146.23;63.24
62508;BME280;48556;51.972;4.624;2023-05-23T00:28:38;76930.63;;;-146.23;63.17
62508;BME280;48556;51.972;4.624;2023-05-23T00:31:04;76898.50;;;-146.23;62.25
62508;BME280;48556;51.972;4.624;2023-05-23T00:33:29;76902.53;;;-146.23;62.74
62508;BME280;48556;51.972;4.624;2023-05-23T00:35:58;76918.59;;;-146.23;63.07
62508;BME280;48556;51.972;4.624;2023-05-23T00:38:24;76882.44;;;-146.23;62.31
62508;BME280;48556;51.972;4.624;2023-05-23T00:40:51;76870.38;;;-146.23;61.86
62508;BME280;48556;51.972;4.624;2023-05-23T00:43:16;76910.56;;;-146.23;62.67
62508;BME280;48556;51.972;4.624;2023-05-23T00:45:43;76924.63;;;-146.23;63.45
62508;BME280;48556;51.972;4.624;2023-05-23T00:48:09;76916.56;;;-146.23;63.49
62508;BME280;48556;51.972;4.624;2023-05-23T00:50:36;76904.53;;;-146.23;63.09
62508;BME280;48556;51.972;4.624;2023-05-23T00:53:02;76932.66;;;-146.23;63.49
62508;BME280;48556;51.972;4.624;2023-05-23T00:55:29;76906.53;;;-146.23;62.97
62508;BME280;48556;51.972;4.624;2023-05-23T00:57:55;76910.56;;;-146.23;63.49
62508;BME280;48556;51.972;4.624;2023-05-23T01:00:24;76906.53;;;-146.23;63.04
62508;BME280;48556;51.972;4.624;2023-05-23T01:02:51;76888.47;;;-146.23;62.41
62508;BME280;48556;51.972;4.624;2023-05-23T01:05:19;76892.47;;;-146.23;62.78
62508;BME280;48556;51.972;4.624;2023-05-23T01:07:48;76884.44;;;-146.23;62.35
62508;BME280;48556;51.972;4.624;2023-05-23T01:10:17;76860.34;;;-146.23;62.22
62508;BME280;48556;51.972;4.624;2023-05-23T01:18:40;76846.28;;;-146.23;61.48
62508;BME280;48556;51.972;4.624;2023-05-23T01:21:13;76890.47;;;-146.23;62.41
62508;BME280;48556;51.972;4.624;2023-05-23T01:29:32;76834.22;;;-146.23;60.94
62508;BME280;48556;51.972;4.624;2023-05-23T01:32:01;76852.31;;;-146.23;61.22
62508;BME280;48556;51.972;4.624;2023-05-23T01:34:27;76910.56;;;-146.23;62.21
62508;BME280;48556;51.972;4.624;2023-05-23T01:36:55;76888.47;;;-146.23;61.77
62508;BME280;48556;51.972;4.624;2023-05-23T01:39:21;76884.44;;;-146.23;61.00
62508;BME280;48556;51.972;4.624;2023-05-23T01:41:49;76896.50;;;-146.23;61.21
62508;BME280;48556;51.972;4.624;2023-05-23T01:44:16;76878.41;;;-146.23;60.33
62508;BME280;48556;51.972;4.624;2023-05-23T01:46:43;76888.47;;;-146.23;60.59
62508;BME280;48556;51.972;4.624;2023-05-23T01:49:12;76866.38;;;-146.23;59.67
62508;BME280;48556;51.972;4.624;2023-05-23T01:51:39;76846.28;;;-146.23;59.34
62508;BME280;48556;51.972;4.624;2023-05-23T01:54:06;76912.56;;;-146.23;59.89
62508;BME280;48556;51.972;4.624;2023-05-23T01:56:32;76930.63;;;-146.23;60.28
62508;BME280;48556;51.972;4.624;2023-05-23T01:58:58;76888.47;;;-146.23;59.38
62508;BME280;48556;51.972;4.624;2023-05-23T02:01:24;76922.59;;;-146.23;60.20
62508;BME280;48556;51.972;4.624;2023-05-23T02:03:50;76894.47;;;-146.23;59.73
62508;BME280;48556;51.972;4.624;2023-05-23T02:06:16;76912.56;;;-146.23;60.02
62508;BME280;48556;51.972;4.624;2023-05-23T02:08:42;76868.38;;;-146.23;59.20
62508;BME280;48556;51.972;4.624;2023-05-23T02:11:07;76890.47;;;-146.23;58.90
62508;BME280;48556;51.972;4.624;2023-05-23T02:13:35;76866.38;;;-146.23;58.62
62508;BME280;48556;51.972;4.624;2023-05-23T02:16:00;76798.06;;;-146.23;57.01
62508;BME280;48556;51.972;4.624;2023-05-23T02:18:26;76908.53;;;-146.23;58.46
62508;BME280;48556;51.972;4.624;2023-05-23T02:20:54;76894.47;;;-146.23;58.71
62508;BME280;48556;51.972;4.624;2023-05-23T02:23:23;76872.38;;;-146.23;58.41
62508;BME280;48556;51.972;4.624;2023-05-23T02:25:49;76890.47;;;-146.23;58.63
62508;BME280;48556;51.972;4.624;2023-05-23T02:28:14;76924.63;;;-146.23;59.19
62508;BME280;48556;51.972;4.624;2023-05-23T02:30:40;76934.66;;;-146.23;59.25
62508;BME280;48556;51.972;4.624;2023-05-23T02:33:07;76948.72;;;-146.23;59.06
62508;BME280;48556;51.972;4.624;2023-05-23T02:35:33;76966.78;;;-146.23;59.23
62508;BME280;48556;51.972;4.624;2023-05-23T02:37:59;76930.63;;;-146.23;58.49
62508;BME280;48556;51.972;4.624;2023-05-23T02:40:24;76922.59;;;-146.23;58.21
62508;BME280;48556;51.972;4.624;2023-05-23T02:42:50;76934.66;;;-146.23;58.34
62508;BME280;48556;51.972;4.624;2023-05-23T02:45:16;76942.69;;;-146.23;58.65
62508;BME280;48556;51.972;4.624;2023-05-23T02:47:42;76924.63;;;-146.23;57.90
62508;BME280;48556;51.972;4.624;2023-05-23T02:50:08;76938.66;;;-146.23;58.16
62508;BME280;48556;51.972;4.624;2023-05-23T02:52:34;76958.75;;;-146.23;58.01
62508;BME280;48556;51.972;4.624;2023-05-23T02:55:00;76930.63;;;-146.23;57.61
62508;BME280;48556;51.972;4.624;2023-05-23T02:57:26;76942.69;;;-146.23;57.37
62508;BME280;48556;51.972;4.624;2023-05-23T02:59:51;76972.81;;;-146.23;57.52
62508;BME280;48556;51.972;4.624;2023-05-23T03:02:17;76978.84;;;-146.23;58.09
62508;BME280;48556;51.972;4.624;2023-05-23T03:04:42;76986.88;;;-146.23;58.42
62508;BME280;48556;51.972;4.624;2023-05-23T03:07:08;76990.91;;;-146.23;58.28
62508;BME280;48556;51.972;4.624;2023-05-23T03:09:35;76988.88;;;-146.23;58.14
62508;BME280;48556;51.972;4.624;2023-05-23T03:12:01;76990.91;;;-146.23;58.51
62508;BME280;48556;51.972;4.624;2023-05-23T03:14:26;76982.84;;;-146.23;57.61
62508;BME280;48556;51.972;4.624;2023-05-23T03:16:52;76954.75;;;-146.23;57.25
62508;BME280;48556;51.972;4.624;2023-05-23T03:19:17;76978.84;;;-146.23;56.96
62508;BME280;48556;51.972;4.624;2023-05-23T03:21:43;76990.91;;;-146.23;57.48
62508;BME280;48556;51.972;4.624;2023-05-23T03:24:08;77043.13;;;-146.23;58.38
62508;BME280;48556;51.972;4.624;2023-05-23T03:26:34;76990.91;;;-146.23;58.00
62508;BME280;48556;51.972;4.624;2023-05-23T03:29:00;77023.03;;;-146.23;58.33
62508;BME280;48556;51.972;4.624;2023-05-23T03:31:26;77029.06;;;-146.23;58.39
62508;BME280;48556;51.972;4.624;2023-05-23T03:33:51;77002.94;;;-146.23;57.90
62508;BME280;48556;51.972;4.624;2023-05-23T03:36:18;76970.81;;;-146.23;57.33
62508;BME280;48556;51.972;4.624;2023-05-23T03:38:43;76974.81;;;-146.23;57.26
62508;BME280;48556;51.972;4.624;2023-05-23T03:41:09;76992.91;;;-146.23;57.08
62508;BME280;48556;51.972;4.624;2023-05-23T03:43:34;76966.78;;;-146.23;56.88
62508;BME280;48556;51.972;4.624;2023-05-23T03:46:00;76992.91;;;-146.23;56.63
62508;BME280;48556;51.972;4.624;2023-05-23T03:48:25;76986.88;;;-146.23;56.35
62508;BME280;48556;51.972;4.624;2023-05-23T03:50:51;77035.09;;;-146.23;56.68
62508;BME280;48556;51.972;4.624;2023-05-23T03:53:16;77045.13;;;-146.23;57.01
62508;BME280;48556;51.972;4.624;2023-05-23T03:55:42;77019.00;;;-146.23;56.40
62508;BME280;48556;51.972;4.624;2023-05-23T03:58:08;77006.97;;;-146.23;56.09
62508;BME280;48556;51.972;4.624;2023-05-23T04:00:33;77019.00;;;-146.23;56.34
62508;BME280;48556;51.972;4.624;2023-05-23T04:02:59;77081.28;;;-146.23;56.90
62508;BME280;48556;51.972;4.624;2023-05-23T04:05:24;77103.38;;;-146.23;57.19
62508;BME280;48556;51.972;4.624;2023-05-23T04:07:50;77057.19;;;-146.23;55.86
62508;BME280;48556;51.972;4.624;2023-05-23T04:10:16;77077.25;;;-146.23;55.56
62508;BME280;48556;51.972;4.624;2023-05-23T04:12:42;77089.31;;;-146.23;55.69
62508;BME280;48556;51.972;4.624;2023-05-23T04:15:09;77057.19;;;-146.23;55.27
62508;BME280;48556;51.972;4.624;2023-05-23T04:17:35;77047.13;;;-146.23;54.98
62508;BME280;48556;51.972;4.624;2023-05-23T04:20:06;77075.25;;;-146.23;55.58
62508;BME280;48556;51.972;4.624;2023-05-23T04:22:31;77015.00;;;-146.23;54.65
62508;BME280;48556;51.972;4.624;2023-05-23T04:24:57;77037.09;;;-146.23;53.97
62508;BME280;48556;51.972;4.624;2023-05-23T04:27:23;77071.25;;;-146.23;53.62
62508;BME280;48556;51.972;4.624;2023-05-23T04:29:52;77067.22;;;-146.23;53.70
62508;BME280;48556;51.972;4.624;2023-05-23T04:32:20;77101.38;;;-146.23;53.85
62508;BME280;48556;51.972;4.624;2023-05-23T04:34:47;77089.31;;;-146.23;54.06
62508;BME280;48556;51.972;4.624;2023-05-23T04:37:12;77095.34;;;-146.23;53.98
62508;BME280;48556;51.972;4.624;2023-05-23T04:39:38;77145.56;;;-146.23;53.95
62508;BME280;48556;51.972;4.624;2023-05-23T04:42:04;77141.53;;;-146.23;53.75
62508;BME280;48556;51.972;4.624;2023-05-23T04:44:31;77151.59;;;-146.23;53.94
62508;BME280;48556;51.972;4.624;2023-05-23T04:46:58;77127.47;;;-146.23;53.75
62508;BME280;48556;51.972;4.624;2023-05-23T04:49:23;77131.50;;;-146.23;53.67
62508;BME280;48556;51.972;4.624;2023-05-23T04:51:49;77119.44;;;-146.23;53.88
62508;BME280;48556;51.972;4.624;2023-05-23T04:54:15;77133.50;;;-146.23;53.36
62508;BME280;48556;51.972;4.624;2023-05-23T04:56:41;77175.69;;;-146.23;53.85
62508;BME280;48556;51.972;4.624;2023-05-23T04:59:06;77175.69;;;-146.23;53.92
62508;BME280;48556;51.972;4.624;2023-05-23T05:01:35;77193.75;;;-146.23;54.34
62508;BME280;48556;51.972;4.624;2023-05-23T05:04:05;77151.59;;;-146.23;53.54
62508;BME280;48556;51.972;4.624;2023-05-23T05:06:31;77181.72;;;-146.23;53.75
62508;BME280;48556;51.972;4.624;2023-05-23T05:08:57;77197.78;;;-146.23;53.37
62508;BME280;48556;51.972;4.624;2023-05-23T05:11:23;77143.56;;;-146.23;52.75
62508;BME280;48556;51.972;4.624;2023-05-23T05:13:48;77157.59;;;-146.23;52.78
62508;BME280;48556;51.972;4.624;2023-05-23T05:16:14;77163.63;;;-146.23;52.77
62508;BME280;48556;51.972;4.624;2023-05-23T05:18:41;77179.69;;;-146.23;53.31
62508;BME280;48556;51.972;4.624;2023-05-23T05:21:06;77173.69;;;-146.23;52.22
62508;BME280;48556;51.972;4.624;2023-05-23T05:23:32;77151.59;;;-146.23;51.87
62508;BME280;48556;51.972;4.624;2023-05-23T05:25:58;77133.50;;;-146.23;50.89
62508;BME280;48556;51.972;4.624;2023-05-23T05:28:24;77187.75;;;-146.23;51.56
62508;BME280;48556;51.972;4.624;2023-05-23T05:30:50;77185.72;;;-146.23;51.12
62508;BME280;48556;51.972;4.624;2023-05-23T05:33:19;77171.66;;;-146.23;50.63
62508;BME280;48556;51.972;4.624;2023-05-23T05:35:48;77179.69;;;-146.23;51.26
62508;BME280;48556;51.972;4.624;2023-05-23T05:38:15;77193.75;;;-146.23;51.14
62508;BME280;48556;51.972;4.624;2023-05-23T05:40:41;77175.69;;;-146.23;51.23
62508;BME280;48556;51.972;4.624;2023-05-23T05:43:06;77203.81;;;-146.23;51.88
62508;BME280;48556;51.972;4.624;2023-05-23T05:45:32;77197.78;;;-146.23;51.99
62508;BME280;48556;51.972;4.624;2023-05-23T05:47:58;77221.88;;;-146.23;52.57
62508;BME280;48556;51.972;4.624;2023-05-23T05:50:23;77191.75;;;-146.23;52.27
62508;BME280;48556;51.972;4.624;2023-05-23T05:52:49;77189.75;;;-146.23;51.78
62508;BME280;48556;51.972;4.624;2023-05-23T05:55:14;77169.66;;;-146.23;52.02
62508;BME280;48556;51.972;4.624;2023-05-23T05:57:40;77157.59;;;-146.23;51.98
62508;BME280;48556;51.972;4.624;2023-05-23T06:00:08;77163.63;;;-146.23;52.24
62508;BME280;48556;51.972;4.624;2023-05-23T06:02:40;77139.53;;;-146.23;52.31
62508;BME280;48556;51.972;4.624;2023-05-23T06:05:11;77127.47;;;-146.23;52.19
62508;BME280;48556;51.972;4.624;2023-05-23T06:07:37;77107.41;;;-146.23;51.75
62508;BME280;48556;51.972;4.624;2023-05-23T06:10:03;77139.53;;;-146.23;52.63
62508;BME280;48556;51.972;4.624;2023-05-23T06:12:29;77181.72;;;-146.23;54.26
62508;BME280;48556;51.972;4.624;2023-05-23T06:14:55;77151.59;;;-146.23;53.64
62508;BME280;48556;51.972;4.624;2023-05-23T06:17:21;77215.88;;;-146.23;54.40
62508;BME280;48556;51.972;4.624;2023-05-23T06:19:46;77187.75;;;-146.23;54.00
62508;BME280;48556;51.972;4.624;2023-05-23T06:22:12;77175.69;;;-146.23;54.10
62508;BME280;48556;51.972;4.624;2023-05-23T06:24:38;77155.59;;;-146.23;53.55
62508;BME280;48556;51.972;4.624;2023-05-23T06:27:04;77167.66;;;-146.23;53.61
62508;BME280;48556;51.972;4.624;2023-05-23T06:29:29;77201.81;;;-146.23;53.92
62508;BME280;48556;51.972;4.624;2023-05-23T06:31:56;77191.75;;;-146.23;53.54
62508;BME280;48556;51.972;4.624;2023-05-23T06:34:22;77233.94;;;-146.23;54.47
62508;BME280;48556;51.972;4.624;2023-05-23T06:36:47;77215.88;;;-146.23;54.08
62508;BME280;48556;51.972;4.624;2023-05-23T06:39:14;77191.75;;;-146.23;53.83
62508;BME280;48556;51.972;4.624;2023-05-23T06:41:42;77199.78;;;-146.23;53.92
62508;BME280;48556;51.972;4.624;2023-05-23T06:44:07;77179.69;;;-146.23;54.00
62508;BME280;48556;51.972;4.624;2023-05-23T06:46:33;77187.75;;;-146.23;54.59
62508;BME280;48556;51.972;4.624;2023-05-23T06:48:58;77171.66;;;-146.23;53.75
62508;BME280;48556;51.972;4.624;2023-05-23T06:51:24;77205.81;;;-146.23;54.61
62508;BME280;48556;51.972;4.624;2023-05-23T06:53:49;77215.88;;;-146.23;55.45
62508;BME280;48556;51.972;4.624;2023-05-23T06:56:15;77163.63;;;-146.23;54.44
62508;BME280;48556;51.972;4.624;2023-05-23T06:58:41;77199.78;;;-146.23;53.11
62508;BME280;48556;51.972;4.624;2023-05-23T07:01:06;77211.84;;;-146.23;52.44
62508;BME280;48556;51.972;4.624;2023-05-23T07:03:32;77179.69;;;-146.23;50.91
62508;BME280;48556;51.972;4.624;2023-05-23T07:05:58;77159.63;;;-146.23;50.17
62508;BME280;48556;51.972;4.624;2023-05-23T07:08:23;77203.81;;;-146.23;49.60
62508;BME280;48556;51.972;4.624;2023-05-23T07:10:49;77215.88;;;-146.23;49.50
62508;BME280;48556;51.972;4.624;2023-05-23T07:13:15;77199.78;;;-146.23;49.07
62508;BME280;48556;51.972;4.624;2023-05-23T07:15:40;77147.56;;;-146.23;48.11
62508;BME280;48556;51.972;4.624;2023-05-23T07:18:06;77171.66;;;-146.23;47.27
62508;BME280;48556;51.972;4.624;2023-05-23T07:20:38;77143.56;;;-146.23;47.12
62508;BME280;48556;51.972;4.624;2023-05-23T07:23:08;77119.44;;;-146.23;46.99
62508;BME280;48556;51.972;4.624;2023-05-23T07:25:33;77097.34;;;-146.23;46.11
62508;BME280;48556;51.972;4.624;2023-05-23T07:27:59;77025.03;;;-146.23;45.24
62508;BME280;48556;51.972;4.624;2023-05-23T07:30:27;76994.91;;;-146.23;45.03
62508;BME280;48556;51.972;4.624;2023-05-23T07:32:53;76970.81;;;-146.23;44.61
62508;BME280;48556;51.972;4.624;2023-05-23T07:35:19;76982.84;;;-146.23;45.04
62508;BME280;48556;51.972;4.624;2023-05-23T07:37:48;77019.00;;;-146.23;45.08
62508;BME280;48556;51.972;4.624;2023-05-23T07:40:14;77021.03;;;-146.23;44.84
62508;BME280;48556;51.972;4.624;2023-05-23T07:42:39;77049.16;;;-146.23;45.24
62508;BME280;48556;51.972;4.624;2023-05-23T07:45:05;77025.03;;;-146.23;44.60
62508;BME280;48556;51.972;4.624;2023-05-23T07:47:31;77010.97;;;-146.23;44.62
62508;BME280;48556;51.972;4.624;2023-05-23T07:49:57;77008.97;;;-146.23;44.62
62508;BME280;48556;51.972;4.624;2023-05-23T07:52:23;76972.81;;;-146.23;43.93
62508;BME280;48556;51.972;4.624;2023-05-23T07:54:48;77000.94;;;-146.23;43.38
62508;BME280;48556;51.972;4.624;2023-05-23T07:57:14;77021.03;;;-146.23;43.77
62508;BME280;48556;51.972;4.624;2023-05-23T07:59:40;77019.00;;;-146.23;43.10
62508;BME280;48556;51.972;4.624;2023-05-23T08:02:06;77055.16;;;-146.23;43.89
62508;BME280;48556;51.972;4.624;2023-05-23T08:04:32;76958.75;;;-146.23;42.50
62508;BME280;48556;51.972;4.624;2023-05-23T08:06:58;76988.88;;;-146.23;42.88
62508;BME280;48556;51.972;4.624;2023-05-23T08:09:26;76986.88;;;-146.23;42.60
62508;BME280;48556;51.972;4.624;2023-05-23T08:11:51;76964.78;;;-146.23;42.32
62508;BME280;48556;51.972;4.624;2023-05-23T08:14:17;77015.00;;;-146.23;42.50
62508;BME280;48556;51.972;4.624;2023-05-23T08:16:42;77047.13;;;-146.23;42.61
62508;BME280;48556;51.972;4.624;2023-05-23T08:19:08;77027.06;;;-146.23;42.06
62508;BME280;48556;51.972;4.624;2023-05-23T08:21:34;76996.91;;;-146.23;42.24
62508;BME280;48556;51.972;4.624;2023-05-23T08:24:00;76966.78;;;-146.23;41.74
62508;BME280;48556;51.972;4.624;2023-05-23T08:26:26;76938.66;;;-146.23;41.51
62508;BME280;48556;51.972;4.624;2023-05-23T08:28:54;76966.78;;;-146.23;41.36
62508;BME280;48556;51.972;4.624;2023-05-23T08:31:20;77023.03;;;-146.23;41.27
62508;BME280;48556;51.972;4.624;2023-05-23T08:33:46;77015.00;;;-146.23;40.65
62508;BME280;48556;51.972;4.624;2023-05-23T08:36:11;77031.06;;;-146.23;40.53
62508;BME280;48556;51.972;4.624;2023-05-23T08:38:37;76986.88;;;-146.23;39.84
62508;BME280;48556;51.972;4.624;2023-05-23T08:41:04;77015.00;;;-146.23;40.03
62508;BME280;48556;51.972;4.624;2023-05-23T08:43:32;76970.81;;;-146.23;39.94
62508;BME280;48556;51.972;4.624;2023-05-23T08:45:58;76934.66;;;-146.23;39.31
62508;BME280;48556;51.972;4.624;2023-05-23T08:48:25;76892.47;;;-146.23;39.29
62508;BME280;48556;51.972;4.624;2023-05-23T08:50:52;76824.19;;;-146.23;38.64
62508;BME280;48556;51.972;4.624;2023-05-23T08:53:20;76810.13;;;-146.23;38.59
62508;BME280;48556;51.972;4.624;2023-05-23T08:55:48;76832.22;;;-146.23;39.31
62508;BME280;48556;51.972;4.624;2023-05-23T08:58:17;76806.13;;;-146.23;39.11
62508;BME280;48556;51.972;4.624;2023-05-23T09:00:47;76794.06;;;-146.23;38.69
62508;BME280;48556;51.972;4.624;2023-05-23T09:03:14;76840.25;;;-146.23;38.00
62508;BME280;48556;51.972;4.624;2023-05-23T09:05:41;76771.97;;;-146.23;37.40
62508;BME280;48556;51.972;4.624;2023-05-23T09:08:07;76802.09;;;-146.23;37.38
62508;BME280;48556;51.972;4.624;2023-05-23T09:10:33;76737.81;;;-146.23;37.17
62508;BME280;48556;51.972;4.624;2023-05-23T09:13:00;76733.81;;;-146.23;37.81
62508;BME280;48556;51.972;4.624;2023-05-23T09:15:26;76703.69;;;-146.23;37.40
62508;BME280;48556;51.972;4.624;2023-05-23T09:17:51;76755.91;;;-146.23;37.21
62508;BME280;48556;51.972;4.624;2023-05-23T09:20:17;76782.00;;;-146.23;37.87
62508;BME280;48556;51.972;4.624;2023-05-23T09:22:47;76761.94;;;-146.23;38.15
62508;BME280;48556;51.972;4.624;2023-05-23T09:25:13;76727.78;;;-146.23;36.79
62508;BME280;48556;51.972;4.624;2023-05-23T09:27:39;76733.81;;;-146.23;37.48
62508;BME280;48556;51.972;4.624;2023-05-23T09:30:09;76761.94;;;-146.23;38.28
62508;BME280;48556;51.972;4.624;2023-05-23T09:32:36;76769.97;;;-146.23;38.49
62508;BME280;48556;51.972;4.624;2023-05-23T09:35:06;76769.97;;;-146.23;38.94
62508;BME280;48556;51.972;4.624;2023-05-23T09:37:35;76790.03;;;-146.23;38.70
62508;BME280;48556;51.972;4.624;2023-05-23T09:40:20;76749.88;;;-146.23;38.18
62508;BME280;48556;51.972;4.624;2023-05-23T09:42:47;76800.09;;;-146.23;38.62
62508;BME280;48556;51.972;4.624;2023-05-23T09:45:14;76794.06;;;-146.23;38.65
62508;BME280;48556;51.972;4.624;2023-05-23T09:47:52;76778.00;;;-146.23;38.38
62508;BME280;48556;51.972;4.624;2023-05-23T09:50:18;76814.16;;;-146.23;37.96
62508;BME280;48556;51.972;4.624;2023-05-23T09:52:44;76838.25;;;-146.23;37.91
62508;BME280;48556;51.972;4.624;2023-05-23T09:55:11;76826.19;;;-146.23;37.70
62508;BME280;48556;51.972;4.624;2023-05-23T09:57:40;76840.25;;;-146.23;38.08
62508;BME280;48556;51.972;4.624;2023-05-23T10:00:07;76866.38;;;-146.23;39.12
62508;BME280;48556;51.972;4.624;2023-05-23T10:03:10;76834.22;;;-146.23;38.65
62508;BME280;48556;51.972;4.624;2023-05-23T10:08:08;76786.03;;;-146.23;38.41
62508;BME280;48556;51.972;4.624;2023-05-23T10:13:25;76735.81;;;-146.23;37.54
62508;BME280;48556;51.972;4.624;2023-05-23T10:15:58;76771.97;;;-146.23;37.64
62508;BME280;48556;51.972;4.624;2023-05-23T10:18:29;76725.78;;;-146.23;37.23
62508;BME280;48556;51.972;4.624;2023-05-23T10:21:07;76717.75;;;-146.23;37.78
62508;BME280;48556;51.972;4.624;2023-05-23T10:23:34;76808.13;;;-146.23;38.24
62508;BME280;48556;51.972;4.624;2023-05-23T10:26:03;76743.84;;;-146.23;37.20
62508;BME280;48556;51.972;4.624;2023-05-23T10:28:30;76693.63;;;-146.23;37.15
62508;BME280;48556;51.972;4.624;2023-05-23T10:30:58;76669.53;;;-146.23;36.33
62508;BME280;48556;51.972;4.624;2023-05-23T10:33:26;76729.78;;;-146.23;36.86
62508;BME280;48556;51.972;4.624;2023-05-23T10:38:56;76713.72;;;-146.23;36.85
62508;BME280;48556;51.972;4.624;2023-05-23T10:41:45;76767.94;;;-146.23;36.80
62508;BME280;48556;51.972;4.624;2023-05-23T10:46:57;76763.94;;;-146.23;36.86
62508;BME280;48556;51.972;4.624;2023-05-23T10:49:43;76725.78;;;-146.23;36.93
62508;BME280;48556;51.972;4.624;2023-05-23T10:52:11;76759.91;;;-146.23;36.97
62508;BME280;48556;51.972;4.624;2023-05-23T10:54:46;76802.09;;;-146.23;37.14
62508;BME280;48556;51.972;4.624;2023-05-23T10:57:16;76838.25;;;-146.23;37.50
62508;BME280;48556;51.972;4.624;2023-05-23T10:59:42;76794.06;;;-146.23;36.86
62508;BME280;48556;51.972;4.624;2023-05-23T11:02:13;76794.06;;;-146.23;36.67
62508;BME280;48556;51.972;4.624;2023-05-23T11:04:40;76792.06;;;-146.23;36.77
62508;BME280;48556;51.972;4.624;2023-05-23T11:07:27;76753.88;;;-146.23;36.52
62508;BME280;48556;51.972;4.624;2023-05-23T11:10:07;76763.94;;;-146.23;36.08
62508;BME280;48556;51.972;4.624;2023-05-23T11:12:38;76709.72;;;-146.23;35.75
62508;BME280;48556;51.972;4.624;2023-05-23T11:17:52;76769.97;;;-146.23;36.54
62508;BME280;48556;51.972;4.624;2023-05-23T11:20:20;76808.13;;;-146.23;37.06
62508;BME280;48556;51.972;4.624;2023-05-23T11:23:03;76651.47;;;-146.23;35.81
62508;BME280;48556;51.972;4.624;2023-05-23T11:25:47;76647.44;;;-146.23;35.02
62508;BME280;48556;51.972;4.624;2023-05-23T11:28:17;76617.31;;;-146.23;34.96
62508;BME280;48556;51.972;4.624;2023-05-23T11:30:43;76627.38;;;-146.23;34.65
62508;BME280;48556;51.972;4.624;2023-05-23T11:33:13;76603.25;;;-146.23;34.87
62508;BME280;48556;51.972;4.624;2023-05-23T11:35:40;76536.97;;;-146.23;33.89
62508;BME280;48556;51.972;4.624;2023-05-23T11:38:07;76539.00;;;-146.23;33.54
62508;BME280;48556;51.972;4.624;2023-05-23T11:43:02;76532.97;;;-146.23;33.68
62508;BME280;48556;51.972;4.624;2023-05-23T11:45:30;76520.91;;;-146.23;33.36
62508;BME280;48556;51.972;4.624;2023-05-23T11:47:56;76504.84;;;-146.23;33.44
62508;BME280;48556;51.972;4.624;2023-05-23T11:50:22;76516.91;;;-146.23;33.10
62508;BME280;48556;51.972;4.624;2023-05-23T11:52:53;76512.88;;;-146.23;33.11
62508;BME280;48556;51.972;4.624;2023-05-23T11:55:20;76573.13;;;-146.23;33.36
62508;BME280;48556;51.972;4.624;2023-05-23T11:57:47;76593.22;;;-146.23;33.79
62508;BME280;48556;51.972;4.624;2023-05-23T12:00:14;76581.16;;;-146.23;33.68
62508;BME280;48556;51.972;4.624;2023-05-23T12:02:41;76595.22;;;-146.23;33.84
62508;BME280;48556;51.972;4.624;2023-05-23T12:05:08;76522.94;;;-146.23;33.45
62508;BME280;48556;51.972;4.624;2023-05-23T12:07:35;76597.22;;;-146.23;33.94
62508;BME280;48556;51.972;4.624;2023-05-23T12:10:04;76597.22;;;-146.23;33.88
62508;BME280;48556;51.972;4.624;2023-05-23T12:12:31;76557.06;;;-146.23;33.64
62508;BME280;48556;51.972;4.624;2023-05-23T12:14:57;76603.25;;;-146.23;33.37
62508;BME280;48556;51.972;4.624;2023-05-23T12:17:23;76627.38;;;-146.23;33.72
62508;BME280;48556;51.972;4.624;2023-05-23T12:19:49;76621.34;;;-146.23;33.80
62508;BME280;48556;51.972;4.624;2023-05-23T12:22:21;76516.91;;;-146.23;32.89
62508;BME280;48556;51.972;4.624;2023-05-23T12:24:48;76551.03;;;-146.23;32.43
62508;BME280;48556;51.972;4.624;2023-05-23T12:27:15;76541.00;;;-146.23;32.77
62508;BME280;48556;51.972;4.624;2023-05-23T12:29:49;76607.28;;;-146.23;33.63
62508;BME280;48556;51.972;4.624;2023-05-23T12:32:18;76585.19;;;-146.23;33.14
62508;BME280;48556;51.972;4.624;2023-05-23T12:34:43;76504.84;;;-146.23;32.85
62508;BME280;48556;51.972;4.624;2023-05-23T12:37:12;76388.38;;;-146.23;31.99
62508;BME280;48556;51.972;4.624;2023-05-23T12:39:38;76279.94;;;-146.23;30.92
62508;BME280;48556;51.972;4.624;2023-05-23T12:42:08;76267.88;;;-146.23;31.06
62508;BME280;48556;51.972;4.624;2023-05-23T12:44:35;76308.03;;;-146.23;30.88
62508;BME280;48556;51.972;4.624;2023-05-23T12:47:04;76235.75;;;-146.23;30.31
62508;BME280;48556;51.972;4.624;2023-05-23T12:49:29;76219.69;;;-146.23;30.39
62508;BME280;48556;51.972;4.624;2023-05-23T12:51:55;76324.09;;;-146.23;30.63
62508;BME280;48556;51.972;4.624;2023-05-23T12:54:21;76362.25;;;-146.23;31.46
62508;BME280;48556;51.972;4.624;2023-05-23T12:56:46;76504.84;;;-146.23;32.17
62508;BME280;48556;51.972;4.624;2023-05-23T12:59:12;76496.81;;;-146.23;32.58
62508;BME280;48556;51.972;4.624;2023-05-23T13:01:38;76500.84;;;-146.23;32.24
62508;BME280;48556;51.972;4.624;2023-05-23T13:04:04;76484.78;;;-146.23;32.27
62508;BME280;48556;51.972;4.624;2023-05-23T13:06:30;76432.56;;;-146.23;32.01
62508;BME280;48556;51.972;4.624;2023-05-23T13:08:56;76364.28;;;-146.23;31.28